sensor_id;sensor_type;location;lat;lon;timestamp;pressure;altitude;pressure_sealevel;temperature;humidity
74524;BME280;63074;44.696;10.358;2022-11-06T12:13:15;100158.44;;;19.72;49.13
74524;BME280;63074;44.696;10.358;2022-11-06T12:15:44;100144.16;;;18.56;56.09
74524;BME280;63074;44.696;10.358;2022-11-06T12:18:14;100146.22;;;22.23;47.85
74524;BME280;63074;44.696;10.358;2022-11-06T12:20:50;100144.03;;;19.00;53.77
74524;BME280;63074;44.696;10.358;2022-11-06T12:23:22;100143.03;;;21.94;48.78
74524;BME280;63074;44.696;10.358;2022-11-06T12:28:31;100135.50;;;22.35;45.37
74524;BME280;63074;44.696;10.358;2022-11-06T12:31:08;100141.78;;;21.64;46.41
74524;BME280;63074;44.696;10.358;2022-11-06T12:33:38;100135.31;;;23.55;43.17
74524;BME280;63074;44.696;10.358;2022-11-06T12:36:07;100134.75;;;21.71;46.12
74524;BME280;63074;44.696;10.358;2022-11-06T12:38:56;100133.50;;;23.11;45.71
74524;BME280;63074;44.696;10.358;2022-11-06T12:41:35;100133.84;;;26.71;38.10
74524;BME280;63074;44.696;10.358;2022-11-06T12:44:01;100135.25;;;26.77;34.71
74524;BME280;63074;44.696;10.358;2022-11-06T12:52:37;100138.47;;;28.85;29.57
74524;BME280;63074;44.696;10.358;2022-11-06T12:58:29;100125.88;;;26.57;33.26
74524;BME280;63074;44.696;10.358;2022-11-06T13:01:17;100132.72;;;25.18;36.94
74524;BME280;63074;44.696;10.358;2022-11-06T13:14:24;100109.59;;;19.33;50.38
74524;BME280;63074;44.696;10.358;2022-11-06T13:25:04;100099.91;;;17.08;63.00
74524;BME280;63074;44.696;10.358;2022-11-06T13:27:37;100091.34;;;16.60;63.63
74524;BME280;63074;44.696;10.358;2022-11-06T13:30:22;100096.94;;;15.52;67.71
74524;BME280;63074;44.696;10.358;2022-11-06T13:35:26;100088.03;;;19.13;55.37
74524;BME280;63074;44.696;10.358;2022-11-06T13:37:54;100086.59;;;19.82;53.02
74524;BME280;63074;44.696;10.358;2022-11-06T13:40:34;100091.72;;;19.03;55.86
74524;BME280;63074;44.696;10.358;2022-11-06T13:43:09;100082.41;;;19.52;54.26
74524;BME280;63074;44.696;10.358;2022-11-06T13:59:11;100083.47;;;26.38;37.44
74524;BME280;63074;44.696;10.358;2022-11-06T14:06:53;100074.78;;;22.33;40.64
74524;BME280;63074;44.696;10.358;2022-11-06T14:09:24;100065.09;;;24.06;40.16
74524;BME280;63074;44.696;10.358;2022-11-06T14:11:56;100064.94;;;24.11;39.61
74524;BME280;63074;44.696;10.358;2022-11-06T14:14:27;100065.50;;;23.22;41.29
74524;BME280;63074;44.696;10.358;2022-11-06T14:20:00;100067.91;;;21.00;45.32
74524;BME280;63074;44.696;10.358;2022-11-06T14:22:35;100075.59;;;20.71;47.29
74524;BME280;63074;44.696;10.358;2022-11-06T14:32:55;100071.16;;;19.59;50.00
74524;BME280;63074;44.696;10.358;2022-11-06T14:38:29;100082.38;;;20.73;48.62
74524;BME280;63074;44.696;10.358;2022-11-06T14:40:56;100074.56;;;20.02;47.40
74524;BME280;63074;44.696;10.358;2022-11-06T14:43:26;100075.47;;;19.17;49.95
74524;BME280;63074;44.696;10.358;2022-11-06T14:46:18;100067.84;;;18.71;51.90
74524;BME280;63074;44.696;10.358;2022-11-06T14:48:49;100070.44;;;17.45;54.98
74524;BME280;63074;44.696;10.358;2022-11-06T14:51:15;100067.47;;;18.49;53.44
74524;BME280;63074;44.696;10.358;2022-11-06T14:53:54;100065.94;;;18.43;55.34
74524;BME280;63074;44.696;10.358;2022-11-06T14:56:24;100063.84;;;18.01;59.12
74524;BME280;63074;44.696;10.358;2022-11-06T14:58:55;100069.72;;;17.79;57.86
74524;BME280;63074;44.696;10.358;2022-11-06T15:01:28;100068.94;;;17.19;59.59
74524;BME280;63074;44.696;10.358;2022-11-06T15:03:57;100076.69;;;16.71;62.82
74524;BME280;63074;44.696;10.358;2022-11-06T15:08:54;100065.34;;;16.29;65.29
74524;BME280;63074;44.696;10.358;2022-11-06T15:16:27;100058.00;;;15.73;68.44
74524;BME280;63074;44.696;10.358;2022-11-06T15:18:53;100055.00;;;15.65;69.02
74524;BME280;63074;44.696;10.358;2022-11-06T15:21:39;100057.38;;;15.46;68.57
74524;BME280;63074;44.696;10.358;2022-11-06T15:24:10;100060.56;;;15.23;69.85
74524;BME280;63074;44.696;10.358;2022-11-06T15:26:40;100055.38;;;15.11;71.28
74524;BME280;63074;44.696;10.358;2022-11-06T15:31:37;100065.31;;;14.90;72.55
74524;BME280;63074;44.696;10.358;2022-11-06T15:34:05;100058.19;;;14.79;73.17
74524;BME280;63074;44.696;10.358;2022-11-06T15:36:38;100064.94;;;14.71;73.85
74524;BME280;63074;44.696;10.358;2022-11-06T15:39:40;100054.81;;;14.51;75.82
74524;BME280;63074;44.696;10.358;2022-11-06T15:42:18;100051.44;;;14.34;79.69
74524;BME280;63074;44.696;10.358;2022-11-06T15:44:45;100052.53;;;14.38;79.29
74524;BME280;63074;44.696;10.358;2022-11-06T15:47:25;100062.31;;;14.44;79.44
74524;BME280;63074;44.696;10.358;2022-11-06T15:50:14;100072.88;;;14.41;80.15
74524;BME280;63074;44.696;10.358;2022-11-06T15:52:41;100074.06;;;14.28;80.30
74524;BME280;63074;44.696;10.358;2022-11-06T15:55:14;100068.13;;;14.26;80.66
74524;BME280;63074;44.696;10.358;2022-11-06T15:57:48;100065.06;;;14.12;81.04
74524;BME280;63074;44.696;10.358;2022-11-06T16:00:19;100073.00;;;13.97;81.74
74524;BME280;63074;44.696;10.358;2022-11-06T16:02:47;100067.78;;;13.85;85.13
74524;BME280;63074;44.696;10.358;2022-11-06T16:05:15;100066.97;;;13.85;85.05
74524;BME280;63074;44.696;10.358;2022-11-06T16:07:42;100070.75;;;13.84;85.89
74524;BME280;63074;44.696;10.358;2022-11-06T16:10:14;100069.56;;;13.75;85.82
74524;BME280;63074;44.696;10.358;2022-11-06T16:12:40;100060.59;;;13.69;86.98
74524;BME280;63074;44.696;10.358;2022-11-06T16:18:16;100061.28;;;13.55;87.91
74524;BME280;63074;44.696;10.358;2022-11-06T16:20:48;100059.53;;;13.43;88.09
74524;BME280;63074;44.696;10.358;2022-11-06T16:23:18;100067.16;;;13.25;89.33
74524;BME280;63074;44.696;10.358;2022-11-06T16:25:45;100070.94;;;13.24;90.09
74524;BME280;63074;44.696;10.358;2022-11-06T16:28:21;100057.94;;;13.21;90.86
74524;BME280;63074;44.696;10.358;2022-11-06T16:30:47;100062.22;;;13.00;92.79
74524;BME280;63074;44.696;10.358;2022-11-06T16:33:21;100064.31;;;12.93;93.23
74524;BME280;63074;44.696;10.358;2022-11-06T16:35:48;100064.34;;;12.76;94.30
74524;BME280;63074;44.696;10.358;2022-11-06T16:43:14;100081.38;;;12.60;95.36
74524;BME280;63074;44.696;10.358;2022-11-06T16:45:59;100076.78;;;12.05;98.46
74524;BME280;63074;44.696;10.358;2022-11-06T16:48:34;100083.28;;;12.26;100.00
74524;BME280;63074;44.696;10.358;2022-11-06T16:51:10;100078.31;;;12.17;100.00
74524;BME280;63074;44.696;10.358;2022-11-06T16:53:56;100084.19;;;11.98;100.00
74524;BME280;63074;44.696;10.358;2022-11-06T16:56:26;100083.78;;;12.06;100.00
74524;BME280;63074;44.696;10.358;2022-11-06T16:58:59;100075.78;;;11.94;100.00
74524;BME280;63074;44.696;10.358;2022-11-06T17:01:25;100079.97;;;11.73;100.00
74524;BME280;63074;44.696;10.358;2022-11-06T17:03:57;100076.91;;;11.81;100.00
74524;BME280;63074;44.696;10.358;2022-11-06T17:06:26;100080.50;;;11.87;100.00
74524;BME280;63074;44.696;10.358;2022-11-06T17:09:02;100072.34;;;11.54;100.00
74524;BME280;63074;44.696;10.358;2022-11-06T17:11:28;100076.75;;;11.60;100.00
74524;BME280;63074;44.696;10.358;2022-11-06T17:13:54;100069.72;;;11.59;100.00
74524;BME280;63074;44.696;10.358;2022-11-06T17:16:23;100073.19;;;11.42;100.00
74524;BME280;63074;44.696;10.358;2022-11-06T17:18:49;100079.16;;;11.44;100.00
74524;BME280;63074;44.696;10.358;2022-11-06T17:23:40;100088.19;;;11.38;100.00
74524;BME280;63074;44.696;10.358;2022-11-06T17:26:13;100094.13;;;11.12;100.00
74524;BME280;63074;44.696;10.358;2022-11-06T17:28:40;100093.03;;;11.25;100.00
74524;BME280;63074;44.696;10.358;2022-11-06T17:31:10;100086.28;;;11.10;100.00
74524;BME280;63074;44.696;10.358;2022-11-06T17:33:37;100090.97;;;11.15;100.00
74524;BME280;63074;44.696;10.358;2022-11-06T17:36:02;100090.31;;;10.96;100.00
74524;BME280;63074;44.696;10.358;2022-11-06T17:38:28;100086.44;;;10.92;100.00
74524;BME280;63074;44.696;10.358;2022-11-06T17:40:53;100085.88;;;10.90;100.00
74524;BME280;63074;44.696;10.358;2022-11-06T17:43:18;100093.00;;;10.85;100.00
74524;BME280;63074;44.696;10.358;2022-11-06T17:45:44;100094.63;;;10.86;100.00
74524;BME280;63074;44.696;10.358;2022-11-06T17:48:12;100093.81;;;10.85;100.00
74524;BME280;63074;44.696;10.358;2022-11-06T17:50:37;100096.28;;;10.75;100.00
74524;BME280;63074;44.696;10.358;2022-11-06T17:53:21;100098.25;;;10.91;100.00
74524;BME280;63074;44.696;10.358;2022-11-06T17:55:46;100096.31;;;10.63;100.00
74524;BME280;63074;44.696;10.358;2022-11-06T17:58:12;100098.16;;;10.63;100.00
74524;BME280;63074;44.696;10.358;2022-11-06T18:00:37;100105.16;;;10.52;100.00
74524;BME280;63074;44.696;10.358;2022-11-06T18:03:03;100099.31;;;10.43;100.00
74524;BME280;63074;44.696;10.358;2022-11-06T18:05:28;100102.59;;;10.45;100.00
74524;BME280;63074;44.696;10.358;2022-11-06T18:07:54;100111.94;;;10.43;100.00
74524;BME280;63074;44.696;10.358;2022-11-06T18:10:19;100110.75;;;10.27;100.00
74524;BME280;63074;44.696;10.358;2022-11-06T18:12:44;100118.69;;;10.22;100.00
74524;BME280;63074;44.696;10.358;2022-11-06T18:15:10;100120.63;;;10.15;100.00
74524;BME280;63074;44.696;10.358;2022-11-06T18:17:35;100126.75;;;10.22;100.00
74524;BME280;63074;44.696;10.358;2022-11-06T18:20:08;100121.38;;;10.22;100.00
74524;BME280;63074;44.696;10.358;2022-11-06T18:22:33;100128.00;;;10.08;100.00
74524;BME280;63074;44.696;10.358;2022-11-06T18:24:59;100133.41;;;10.20;100.00
74524;BME280;63074;44.696;10.358;2022-11-06T18:27:24;100128.69;;;10.15;100.00
74524;BME280;63074;44.696;10.358;2022-11-06T18:29:49;100130.63;;;9.96;100.00
74524;BME280;63074;44.696;10.358;2022-11-06T18:32:15;100130.13;;;9.88;100.00
74524;BME280;63074;44.696;10.358;2022-11-06T18:34:40;100142.03;;;9.80;100.00
74524;BME280;63074;44.696;10.358;2022-11-06T18:37:06;100136.69;;;9.92;100.00
74524;BME280;63074;44.696;10.358;2022-11-06T18:39:31;100137.47;;;9.80;100.00
74524;BME280;63074;44.696;10.358;2022-11-06T18:41:57;100139.19;;;9.75;100.00
74524;BME280;63074;44.696;10.358;2022-11-06T18:44:23;100137.88;;;9.66;100.00
74524;BME280;63074;44.696;10.358;2022-11-06T18:46:48;100140.69;;;9.71;100.00
74524;BME280;63074;44.696;10.358;2022-11-06T18:49:14;100143.84;;;9.68;100.00
74524;BME280;63074;44.696;10.358;2022-11-06T18:51:39;100141.75;;;9.70;100.00
74524;BME280;63074;44.696;10.358;2022-11-06T18:54:08;100149.44;;;9.66;100.00
74524;BME280;63074;44.696;10.358;2022-11-06T18:56:34;100139.38;;;9.62;100.00
74524;BME280;63074;44.696;10.358;2022-11-06T18:59:04;100143.44;;;9.53;100.00
74524;BME280;63074;44.696;10.358;2022-11-06T19:01:30;100136.47;;;9.63;100.00
74524;BME280;63074;44.696;10.358;2022-11-06T19:03:58;100139.88;;;9.70;100.00
74524;BME280;63074;44.696;10.358;2022-11-06T19:06:24;100140.41;;;9.61;100.00
74524;BME280;63074;44.696;10.358;2022-11-06T19:08:49;100126.09;;;9.67;100.00
74524;BME280;63074;44.696;10.358;2022-11-06T19:11:17;100135.41;;;9.64;100.00
74524;BME280;63074;44.696;10.358;2022-11-06T19:13:43;100137.97;;;9.59;100.00
74524;BME280;63074;44.696;10.358;2022-11-06T19:16:09;100144.47;;;9.52;100.00
74524;BME280;63074;44.696;10.358;2022-11-06T19:18:37;100147.00;;;9.46;100.00
74524;BME280;63074;44.696;10.358;2022-11-06T19:21:05;100153.78;;;9.49;100.00
74524;BME280;63074;44.696;10.358;2022-11-06T19:23:32;100151.16;;;9.61;100.00
74524;BME280;63074;44.696;10.358;2022-11-06T19:25:58;100153.88;;;9.42;100.00
74524;BME280;63074;44.696;10.358;2022-11-06T19:28:23;100147.69;;;9.42;100.00
74524;BME280;63074;44.696;10.358;2022-11-06T19:30:49;100155.59;;;9.37;100.00
74524;BME280;63074;44.696;10.358;2022-11-06T19:33:18;100143.22;;;9.36;100.00
74524;BME280;63074;44.696;10.358;2022-11-06T19:35:43;100143.88;;;9.31;100.00
74524;BME280;63074;44.696;10.358;2022-11-06T19:38:09;100141.66;;;9.28;100.00
74524;BME280;63074;44.696;10.358;2022-11-06T19:40:43;100143.13;;;9.24;100.00
74524;BME280;63074;44.696;10.358;2022-11-06T19:43:19;100144.78;;;9.25;100.00
74524;BME280;63074;44.696;10.358;2022-11-06T19:45:44;100150.25;;;9.19;100.00
74524;BME280;63074;44.696;10.358;2022-11-06T19:48:10;100151.28;;;9.18;100.00
74524;BME280;63074;44.696;10.358;2022-11-06T19:50:35;100145.03;;;9.24;100.00
74524;BME280;63074;44.696;10.358;2022-11-06T19:53:01;100139.88;;;9.22;100.00
74524;BME280;63074;44.696;10.358;2022-11-06T19:55:26;100139.13;;;9.15;100.00
74524;BME280;63074;44.696;10.358;2022-11-06T19:57:51;100142.78;;;9.21;100.00
74524;BME280;63074;44.696;10.358;2022-11-06T20:00:17;100152.91;;;9.19;100.00
74524;BME280;63074;44.696;10.358;2022-11-06T20:02:42;100148.06;;;9.09;100.00
74524;BME280;63074;44.696;10.358;2022-11-06T20:05:08;100165.63;;;9.05;100.00
74524;BME280;63074;44.696;10.358;2022-11-06T20:07:33;100157.16;;;9.08;100.00
74524;BME280;63074;44.696;10.358;2022-11-06T20:10:02;100156.78;;;9.04;100.00
74524;BME280;63074;44.696;10.358;2022-11-06T20:12:28;100154.97;;;8.98;100.00
74524;BME280;63074;44.696;10.358;2022-11-06T20:14:59;100166.28;;;9.00;100.00
74524;BME280;63074;44.696;10.358;2022-11-06T20:17:24;100164.06;;;8.97;100.00
74524;BME280;63074;44.696;10.358;2022-11-06T20:19:50;100172.84;;;9.04;100.00
74524;BME280;63074;44.696;10.358;2022-11-06T20:22:15;100169.19;;;8.99;100.00
74524;BME280;63074;44.696;10.358;2022-11-06T20:24:40;100169.28;;;8.92;100.00
74524;BME280;63074;44.696;10.358;2022-11-06T20:27:06;100170.78;;;8.88;100.00
74524;BME280;63074;44.696;10.358;2022-11-06T20:29:31;100173.22;;;8.90;100.00
74524;BME280;63074;44.696;10.358;2022-11-06T20:32:00;100173.22;;;8.90;100.00
74524;BME280;63074;44.696;10.358;2022-11-06T20:34:25;100177.16;;;8.87;100.00
74524;BME280;63074;44.696;10.358;2022-11-06T20:36:51;100179.41;;;8.90;100.00
74524;BME280;63074;44.696;10.358;2022-11-06T20:39:16;100175.59;;;8.79;100.00
74524;BME280;63074;44.696;10.358;2022-11-06T20:41:42;100179.09;;;8.80;100.00
74524;BME280;63074;44.696;10.358;2022-11-06T20:44:07;100185.97;;;8.69;100.00
74524;BME280;63074;44.696;10.358;2022-11-06T20:46:33;100184.94;;;8.70;100.00
74524;BME280;63074;44.696;10.358;2022-11-06T20:48:58;100182.03;;;8.72;100.00
74524;BME280;63074;44.696;10.358;2022-11-06T20:51:25;100185.16;;;8.69;100.00
74524;BME280;63074;44.696;10.358;2022-11-06T20:53:52;100191.03;;;8.59;100.00
74524;BME280;63074;44.696;10.358;2022-11-06T20:56:19;100190.19;;;8.59;100.00
74524;BME280;63074;44.696;10.358;2022-11-06T20:58:45;100189.47;;;8.70;100.00
74524;BME280;63074;44.696;10.358;2022-11-06T21:01:12;100187.06;;;8.87;100.00
74524;BME280;63074;44.696;10.358;2022-11-06T21:03:41;100182.25;;;8.70;100.00
74524;BME280;63074;44.696;10.358;2022-11-06T21:06:10;100183.59;;;8.61;100.00
74524;BME280;63074;44.696;10.358;2022-11-06T21:08:37;100187.13;;;8.55;100.00
74524;BME280;63074;44.696;10.358;2022-11-06T21:11:06;100188.22;;;8.48;100.00
74524;BME280;63074;44.696;10.358;2022-11-06T21:13:34;100184.94;;;8.45;100.00
74524;BME280;63074;44.696;10.358;2022-11-06T21:16:03;100188.69;;;8.38;100.00
74524;BME280;63074;44.696;10.358;2022-11-06T21:18:29;100190.34;;;8.39;100.00
74524;BME280;63074;44.696;10.358;2022-11-06T21:20:54;100197.94;;;8.42;100.00
74524;BME280;63074;44.696;10.358;2022-11-06T21:23:24;100193.69;;;8.28;100.00
74524;BME280;63074;44.696;10.358;2022-11-06T21:25:49;100200.28;;;8.32;100.00
74524;BME280;63074;44.696;10.358;2022-11-06T21:28:15;100201.53;;;8.29;100.00
74524;BME280;63074;44.696;10.358;2022-11-06T21:30:41;100204.44;;;8.21;100.00
74524;BME280;63074;44.696;10.358;2022-11-06T21:33:19;100201.13;;;8.26;100.00
74524;BME280;63074;44.696;10.358;2022-11-06T21:35:47;100202.13;;;8.31;100.00
74524;BME280;63074;44.696;10.358;2022-11-06T21:38:12;100198.63;;;8.31;100.00
74524;BME280;63074;44.696;10.358;2022-11-06T21:40:38;100201.34;;;8.24;100.00
74524;BME280;63074;44.696;10.358;2022-11-06T21:43:06;100199.06;;;8.34;100.00
74524;BME280;63074;44.696;10.358;2022-11-06T21:45:32;100207.47;;;8.31;100.00
74524;BME280;63074;44.696;10.358;2022-11-06T21:47:58;100204.81;;;8.31;100.00
74524;BME280;63074;44.696;10.358;2022-11-06T21:50:23;100201.72;;;8.28;100.00
74524;BME280;63074;44.696;10.358;2022-11-06T21:52:53;100199.34;;;8.13;100.00
74524;BME280;63074;44.696;10.358;2022-11-06T21:55:37;100208.81;;;8.16;100.00
74524;BME280;63074;44.696;10.358;2022-11-06T21:58:21;100209.84;;;8.14;100.00
74524;BME280;63074;44.696;10.358;2022-11-06T22:00:47;100212.66;;;8.26;100.00
74524;BME280;63074;44.696;10.358;2022-11-06T22:03:13;100215.94;;;8.28;100.00
74524;BME280;63074;44.696;10.358;2022-11-06T22:05:39;100224.19;;;8.27;100.00
74524;BME280;63074;44.696;10.358;2022-11-06T22:08:05;100229.94;;;8.37;100.00
74524;BME280;63074;44.696;10.358;2022-11-06T22:10:31;100226.19;;;8.38;100.00
74524;BME280;63074;44.696;10.358;2022-11-06T22:12:56;100228.50;;;8.34;100.00
74524;BME280;63074;44.696;10.358;2022-11-06T22:15:22;100230.56;;;8.32;100.00
74524;BME280;63074;44.696;10.358;2022-11-06T22:17:47;100231.56;;;8.31;100.00
74524;BME280;63074;44.696;10.358;2022-11-06T22:20:13;100228.88;;;8.38;100.00
74524;BME280;63074;44.696;10.358;2022-11-06T22:22:39;100225.16;;;8.39;100.00
74524;BME280;63074;44.696;10.358;2022-11-06T22:25:04;100226.69;;;8.22;100.00
74524;BME280;63074;44.696;10.358;2022-11-06T22:27:30;100224.47;;;8.12;100.00
74524;BME280;63074;44.696;10.358;2022-11-06T22:29:56;100220.53;;;8.14;100.00
74524;BME280;63074;44.696;10.358;2022-11-06T22:32:22;100221.84;;;8.05;100.00
74524;BME280;63074;44.696;10.358;2022-11-06T22:34:47;100221.88;;;7.99;100.00
74524;BME280;63074;44.696;10.358;2022-11-06T22:37:13;100232.81;;;7.91;100.00
74524;BME280;63074;44.696;10.358;2022-11-06T22:39:38;100222.75;;;7.86;100.00
74524;BME280;63074;44.696;10.358;2022-11-06T22:42:03;100223.16;;;7.90;100.00
74524;BME280;63074;44.696;10.358;2022-11-06T22:44:33;100222.75;;;7.86;100.00
74524;BME280;63074;44.696;10.358;2022-11-06T22:46:59;100221.50;;;7.89;100.00
74524;BME280;63074;44.696;10.358;2022-11-06T22:49:24;100217.78;;;7.96;100.00
74524;BME280;63074;44.696;10.358;2022-11-06T22:51:50;100220.72;;;7.82;100.00
74524;BME280;63074;44.696;10.358;2022-11-06T22:54:16;100213.84;;;7.99;100.00
74524;BME280;63074;44.696;10.358;2022-11-06T22:56:41;100222.94;;;7.91;100.00
74524;BME280;63074;44.696;10.358;2022-11-06T22:59:07;100214.28;;;7.96;100.00
74524;BME280;63074;44.696;10.358;2022-11-06T23:01:33;100229.94;;;7.92;100.00
74524;BME280;63074;44.696;10.358;2022-11-06T23:04:04;100228.69;;;7.95;100.00
74524;BME280;63074;44.696;10.358;2022-11-06T23:06:30;100225.19;;;7.94;100.00
74524;BME280;63074;44.696;10.358;2022-11-06T23:08:56;100227.91;;;7.88;100.00
74524;BME280;63074;44.696;10.358;2022-11-06T23:11:23;100240.47;;;7.87;100.00
74524;BME280;63074;44.696;10.358;2022-11-06T23:13:50;100248.25;;;7.95;100.00
74524;BME280;63074;44.696;10.358;2022-11-06T23:16:21;100245.38;;;7.90;100.00
74524;BME280;63074;44.696;10.358;2022-11-06T23:19:08;100237.34;;;7.90;100.00
74524;BME280;63074;44.696;10.358;2022-11-06T23:21:33;100242.53;;;7.85;100.00
74524;BME280;63074;44.696;10.358;2022-11-06T23:23:59;100245.63;;;7.82;100.00
74524;BME280;63074;44.696;10.358;2022-11-06T23:26:24;100242.19;;;7.75;100.00
74524;BME280;63074;44.696;10.358;2022-11-06T23:28:50;100240.56;;;7.67;100.00
74524;BME280;63074;44.696;10.358;2022-11-06T23:31:15;100233.94;;;7.76;100.00
74524;BME280;63074;44.696;10.358;2022-11-06T23:33:42;100244.84;;;7.75;100.00
74524;BME280;63074;44.696;10.358;2022-11-06T23:36:09;100240.94;;;7.77;100.00
74524;BME280;63074;44.696;10.358;2022-11-06T23:38:35;100233.25;;;7.88;100.00
74524;BME280;63074;44.696;10.358;2022-11-06T23:41:08;100226.25;;;7.87;100.00
74524;BME280;63074;44.696;10.358;2022-11-06T23:43:53;100233.53;;;7.79;100.00
74524;BME280;63074;44.696;10.358;2022-11-06T23:46:21;100234.72;;;7.84;100.00
74524;BME280;63074;44.696;10.358;2022-11-06T23:48:47;100234.31;;;7.80;100.00
74524;BME280;63074;44.696;10.358;2022-11-06T23:51:12;100234.09;;;7.82;100.00
74524;BME280;63074;44.696;10.358;2022-11-06T23:53:38;100225.84;;;7.83;100.00
74524;BME280;63074;44.696;10.358;2022-11-06T23:56:05;100228.09;;;7.93;100.00
74524;BME280;63074;44.696;10.358;2022-11-06T23:58:30;100225.16;;;8.01;100.00
